Time;durP1;ratioP1;P1;durP2;ratioP2;P2;SDS_P1;SDS_P2;PMS_P1;PMS_P2;Temp;Humidity;BMP_temperature;BMP_pressure;BME280_temperature;BME280_humidity;BME280_pressure;Samples;Min_cycle;Max_cycle;Signal;HPM_P1;HPM_P2
2022/08/24 00:00:16;;;;;;;3.95;3.22;;;17.40;71.20;;;;;;4945687;28;20125;-63
2022/08/24 00:02:41;;;;;;;3.90;3.50;;;17.40;71.30;;;;;;4947484;28;20102;-63
2022/08/24 00:05:08;;;;;;;3.78;3.30;;;17.40;70.90;;;;;;4947353;28;20039;-63
2022/08/24 00:07:34;;;;;;;3.63;3.20;;;17.40;70.90;;;;;;4928233;28;20507;-61
2022/08/24 00:10:00;;;;;;;5.40;2.88;;;17.30;70.90;;;;;;4947048;28;20035;-63
2022/08/24 00:12:27;;;;;;;3.58;3.30;;;17.30;71.80;;;;;;4941440;28;20058;-62
2022/08/24 00:14:53;;;;;;;4.22;3.47;;;17.30;71.30;;;;;;4947302;28;20387;-62
2022/08/24 00:17:19;;;;;;;3.67;3.38;;;17.30;71.40;;;;;;4947316;28;20130;-63
2022/08/24 00:19:46;;;;;;;3.78;3.40;;;17.20;71.10;;;;;;4943661;28;20062;-63
2022/08/24 00:22:12;;;;;;;3.83;3.20;;;17.20;70.70;;;;;;4942863;28;20078;-63
2022/08/24 00:24:38;;;;;;;3.35;3.05;;;17.20;71.40;;;;;;4945094;28;20062;-62
2022/08/24 00:27:05;;;;;;;3.42;3.13;;;17.10;71.40;;;;;;4947537;28;20039;-63
2022/08/24 00:29:31;;;;;;;3.90;3.40;;;17.10;71.60;;;;;;4945767;28;20411;-63
2022/08/24 00:31:57;;;;;;;3.97;3.55;;;17.10;71.70;;;;;;4947606;28;20047;-62
2022/08/24 00:34:22;;;;;;;3.47;3.28;;;17.10;71.80;;;;;;4944514;28;20043;-62
2022/08/24 00:36:48;;;;;;;3.20;3.00;;;17.10;71.80;;;;;;4946034;28;20034;-62
2022/08/24 00:39:14;;;;;;;5.05;3.40;;;17.10;71.80;;;;;;4944545;28;20043;-62
2022/08/24 00:41:43;;;;;;;3.75;3.13;;;17.10;71.80;;;;;;4945484;28;20039;-62
2022/08/24 00:44:10;;;;;;;6.07;3.50;;;17.10;72.00;;;;;;4944654;28;20031;-63
2022/08/24 00:47:00;;;;;;;3.60;3.30;;;17.00;71.90;;;;;;4942246;28;20435;-63
2022/08/24 00:49:41;;;;;;;3.83;3.42;;;16.90;72.50;;;;;;4945610;28;20414;-62
2022/08/24 00:52:42;;;;;;;3.85;3.55;;;17.00;72.50;;;;;;4947087;28;20573;-63
2022/08/24 00:55:12;;;;;;;3.95;3.20;;;17.00;72.90;;;;;;4919514;28;20042;-62
2022/08/24 00:57:41;;;;;;;3.85;3.08;;;16.90;71.80;;;;;;4944962;28;20245;-62
2022/08/24 01:00:11;;;;;;;3.45;3.25;;;16.90;71.90;;;;;;4943270;28;20045;-62
2022/08/24 01:02:42;;;;;;;3.85;3.15;;;16.80;72.10;;;;;;4941557;28;20035;-61
2022/08/24 01:05:09;;;;;;;3.25;3.00;;;16.80;73.20;;;;;;4944628;28;20373;-62
2022/08/24 01:07:36;;;;;;;3.63;3.33;;;16.80;72.40;;;;;;4944790;28;20415;-61
2022/08/24 01:10:10;;;;;;;5.55;3.10;;;16.80;72.50;;;;;;4946590;28;20032;-62
2022/08/24 01:12:40;;;;;;;4.13;3.17;;;16.80;72.80;;;;;;4939562;28;20555;-61
2022/08/24 01:15:09;;;;;;;4.05;3.42;;;16.70;72.60;;;;;;4949603;28;20047;-61
2022/08/24 01:20:22;;;;;;;3.70;3.33;;;16.80;72.40;;;;;;4946972;28;20113;-62
2022/08/24 01:22:53;;;;;;;4.40;3.60;;;16.80;72.00;;;;;;4945368;28;20047;-61
2022/08/24 01:25:20;;;;;;;3.42;3.20;;;16.70;72.30;;;;;;4948848;28;20431;-62
2022/08/24 01:27:48;;;;;;;4.10;3.70;;;16.70;72.20;;;;;;4949908;28;20035;-62
2022/08/24 01:30:16;;;;;;;3.92;3.63;;;16.70;72.50;;;;;;4948726;28;20050;-62
2022/08/24 01:33:01;;;;;;;3.80;3.50;;;16.60;72.60;;;;;;4947667;28;20031;-62
2022/08/24 01:35:27;;;;;;;;;;;16.60;73.60;;;;;;4949179;28;20094;-63
2022/08/24 01:37:55;;;;;;;3.60;3.38;;;16.60;73.20;;;;;;4947223;28;20390;-60
2022/08/24 01:40:30;;;;;;;5.22;3.90;;;16.60;72.30;;;;;;4949792;28;20126;-63
2022/08/24 01:42:56;;;;;;;4.18;3.88;;;16.50;73.00;;;;;;4950287;28;20439;-62
2022/08/24 01:45:21;;;;;;;4.20;3.80;;;16.50;72.70;;;;;;4945943;28;20039;-62
2022/08/24 01:47:47;;;;;;;3.85;3.45;;;16.50;73.10;;;;;;4950635;28;20069;-62
2022/08/24 01:50:13;;;;;;;3.65;3.35;;;16.40;73.30;;;;;;4949642;28;20043;-62
2022/08/24 01:52:41;;;;;;;5.50;3.55;;;16.40;73.50;;;;;;4944277;28;20091;-61
2022/08/24 01:55:09;;;;;;;4.55;3.42;;;16.30;73.80;;;;;;4944797;28;20126;-60
2022/08/24 01:57:35;;;;;;;5.00;4.22;;;16.30;74.00;;;;;;4950084;28;20042;-61
2022/08/24 02:00:04;;;;;;;4.00;3.70;;;16.30;74.00;;;;;;4947518;28;20564;-61
2022/08/24 02:02:31;;;;;;;3.85;3.47;;;16.30;74.20;;;;;;4950472;28;20047;-62
2022/08/24 02:04:56;;;;;;;4.57;4.18;;;16.30;74.20;;;;;;4947382;28;20050;-61
2022/08/24 02:07:23;;;;;;;4.10;3.80;;;16.30;74.20;;;;;;4944365;28;20040;-62
2022/08/24 02:09:48;;;;;;;4.57;4.18;;;16.30;74.20;;;;;;4946498;28;20518;-61
2022/08/24 02:12:14;;;;;;;4.28;3.90;;;16.30;74.10;;;;;;4943983;28;20035;-61
2022/08/24 02:14:40;;;;;;;4.82;3.65;;;16.20;74.00;;;;;;4948862;28;20582;-62
2022/08/24 02:17:08;;;;;;;3.90;3.53;;;16.20;74.10;;;;;;4949397;28;20419;-61
2022/08/24 02:19:34;;;;;;;4.03;3.65;;;16.10;74.20;;;;;;4946665;28;20039;-61
2022/08/24 02:22:00;;;;;;;4.50;4.10;;;16.10;74.30;;;;;;4948282;28;20126;-60
2022/08/24 02:24:27;;;;;;;3.80;3.53;;;16.10;74.50;;;;;;4945137;28;20061;-63
2022/08/24 02:26:52;;;;;;;4.07;3.67;;;16.10;74.40;;;;;;4947129;28;20086;-62
2022/08/24 02:29:18;;;;;;;3.97;3.67;;;16.10;74.50;;;;;;4946418;28;22026;-62
2022/08/24 02:31:44;;;;;;;4.53;4.13;;;16.10;74.40;;;;;;4943463;28;20177;-60
2022/08/24 02:34:09;;;;;;;4.03;3.58;;;16.10;74.40;;;;;;4947000;28;20130;-61
2022/08/24 02:36:35;;;;;;;3.80;3.50;;;16.00;74.40;;;;;;4949064;28;20500;-62
2022/08/24 02:39:01;;;;;;;4.22;3.83;;;16.00;74.50;;;;;;4946755;28;20035;-62
2022/08/24 02:41:27;;;;;;;4.63;4.05;;;16.00;74.50;;;;;;4945586;28;20546;-59
2022/08/24 02:43:54;;;;;;;4.53;3.47;;;16.00;74.40;;;;;;4947208;28;20050;-62
2022/08/24 02:46:24;;;;;;;3.97;3.63;;;16.00;74.20;;;;;;4948049;28;20499;-61
2022/08/24 02:48:49;;;;;;;3.97;3.58;;;16.00;74.00;;;;;;4946307;28;20048;-61
2022/08/24 02:51:23;;;;;;;3.70;3.40;;;16.00;74.00;;;;;;4947359;28;20032;-61
2022/08/24 02:53:49;;;;;;;5.93;3.47;;;16.00;74.30;;;;;;4946667;28;20747;-62
2022/08/24 02:56:16;;;;;;;3.90;3.50;;;16.10;74.00;;;;;;4950679;28;20674;-62
2022/08/24 02:58:46;;;;;;;4.03;3.63;;;16.10;74.00;;;;;;4944419;28;20059;-62
2022/08/24 03:01:13;;;;;;;4.10;3.50;;;16.10;73.90;;;;;;4948264;28;20070;-63
2022/08/24 03:03:39;;;;;;;3.97;3.67;;;16.10;73.70;;;;;;4943382;28;20047;-61
2022/08/24 03:06:06;;;;;;;4.35;3.95;;;16.10;73.50;;;;;;4945324;28;20078;-63
2022/08/24 03:08:33;;;;;;;4.38;3.97;;;16.00;73.40;;;;;;4944940;28;20122;-62
2022/08/24 03:10:59;;;;;;;4.22;3.83;;;16.00;73.50;;;;;;4940171;28;20094;-62
2022/08/24 03:13:29;;;;;;;3.90;3.60;;;15.90;73.60;;;;;;4933437;28;20032;-62
2022/08/24 03:15:56;;;;;;;4.07;3.78;;;15.90;73.70;;;;;;4947222;28;20213;-61
2022/08/24 03:18:24;;;;;;;4.10;3.70;;;15.90;73.90;;;;;;4950313;28;20070;-61
2022/08/24 03:20:50;;;;;;;4.57;4.10;;;15.80;74.00;;;;;;4944180;28;20039;-62
2022/08/24 03:23:16;;;;;;;4.40;4.03;;;15.80;74.30;;;;;;4947482;28;20685;-61
2022/08/24 03:25:43;;;;;;;4.20;3.85;;;15.80;74.40;;;;;;4945305;28;20050;-63
2022/08/24 03:28:10;;;;;;;4.50;4.10;;;15.80;74.40;;;;;;4948082;28;20038;-61
2022/08/24 03:30:37;;;;;;;4.40;4.10;;;15.70;74.40;;;;;;4942318;28;20558;-62
2022/08/24 03:33:04;;;;;;;4.55;4.15;;;15.70;74.40;;;;;;4945659;28;20038;-63
2022/08/24 03:35:29;;;;;;;4.60;4.30;;;15.70;74.30;;;;;;4947588;28;20332;-61
2022/08/24 03:37:55;;;;;;;5.00;4.50;;;15.70;74.40;;;;;;4946756;28;20130;-61
2022/08/24 03:40:22;;;;;;;5.00;4.60;;;15.70;74.60;;;;;;4942489;28;20039;-61
2022/08/24 03:42:48;;;;;;;4.90;4.50;;;15.60;74.60;;;;;;4945036;28;20061;-62
2022/08/24 03:45:14;;;;;;;7.20;4.70;;;15.60;74.80;;;;;;4945346;28;20043;-62
2022/08/24 03:47:40;;;;;;;5.45;4.40;;;15.60;74.90;;;;;;4946648;28;20043;-62
2022/08/24 03:50:07;;;;;;;4.88;4.30;;;15.50;74.90;;;;;;4945410;28;20289;-60
2022/08/24 03:52:34;;;;;;;4.57;4.18;;;15.50;75.00;;;;;;4942083;28;20679;-62
2022/08/24 03:55:00;;;;;;;4.57;4.25;;;15.50;75.00;;;;;;4946688;28;20118;-62
2022/08/24 03:57:25;;;;;;;6.00;3.78;;;15.50;75.00;;;;;;4947874;28;20032;-62
2022/08/24 03:59:51;;;;;;;4.57;3.97;;;15.50;76.00;;;;;;4946566;28;20498;-60
2022/08/24 04:02:17;;;;;;;4.32;3.90;;;15.50;75.10;;;;;;4944392;28;20077;-62
2022/08/24 04:04:42;;;;;;;4.95;4.15;;;15.50;75.00;;;;;;4945187;28;20039;-62
2022/08/24 04:07:08;;;;;;;7.53;4.22;;;15.50;75.00;;;;;;4944258;28;20035;-61
2022/08/24 04:09:33;;;;;;;4.47;4.07;;;15.50;75.00;;;;;;4944504;28;20030;-61
2022/08/24 04:11:59;;;;;;;4.38;3.97;;;15.50;75.00;;;;;;4937154;28;20035;-62
2022/08/24 04:14:25;;;;;;;4.18;3.78;;;15.40;75.10;;;;;;4949687;28;20324;-63
2022/08/24 04:16:51;;;;;;;5.03;4.45;;;15.30;75.30;;;;;;4944105;28;20043;-62
2022/08/24 04:19:16;;;;;;;4.35;3.95;;;15.40;75.60;;;;;;4948316;28;20036;-60
2022/08/24 04:21:43;;;;;;;5.05;4.55;;;15.40;75.60;;;;;;4943108;28;20043;-61
2022/08/24 04:24:10;;;;;;;4.40;4.03;;;15.40;75.40;;;;;;4946401;28;20035;-61
2022/08/24 04:26:38;;;;;;;5.10;4.60;;;15.30;75.40;;;;;;4943915;28;20122;-61
2022/08/24 04:29:08;;;;;;;4.97;4.32;;;15.30;75.40;;;;;;4946586;28;20388;-62
2022/08/24 04:31:38;;;;;;;4.95;4.28;;;15.30;75.40;;;;;;4945031;28;20058;-62
2022/08/24 04:34:05;;;;;;;6.10;4.43;;;15.30;75.60;;;;;;4945328;28;20462;-60
2022/08/24 04:36:31;;;;;;;5.93;4.20;;;15.20;75.60;;;;;;4945158;28;20126;-61
2022/08/24 04:38:57;;;;;;;4.40;4.00;;;15.20;75.60;;;;;;4944965;28;21559;-62
2022/08/24 04:41:22;;;;;;;4.05;3.75;;;15.20;75.80;;;;;;4945075;28;20039;-61
2022/08/24 04:43:49;;;;;;;4.22;3.92;;;15.20;75.80;;;;;;4943833;28;20051;-62
2022/08/24 04:46:17;;;;;;;4.35;3.97;;;15.20;76.60;;;;;;4947840;28;20511;-62
2022/08/24 04:48:44;;;;;;;4.55;4.15;;;15.20;76.10;;;;;;4946160;28;20562;-61
2022/08/24 04:51:11;;;;;;;4.68;4.28;;;15.20;76.20;;;;;;4951762;28;20035;-60
2022/08/24 04:53:38;;;;;;;4.47;4.07;;;15.20;76.20;;;;;;4953763;28;20228;-62
2022/08/24 04:56:28;;;;;;;5.10;4.18;;;15.20;76.10;;;;;;4951033;28;20559;-62
2022/08/24 04:58:54;;;;;;;4.32;4.03;;;15.30;76.30;;;;;;4950381;28;20047;-61
2022/08/24 05:01:23;;;;;;;5.00;3.90;;;15.30;75.90;;;;;;4950345;28;20043;-61
2022/08/24 05:03:52;;;;;;;4.93;4.43;;;15.30;76.00;;;;;;4953520;28;20405;-62
2022/08/24 05:06:21;;;;;;;6.32;4.65;;;15.30;76.00;;;;;;4953274;28;20530;-61
2022/08/24 05:08:46;;;;;;;4.75;4.35;;;15.30;76.00;;;;;;4934958;28;20093;-61
2022/08/24 05:11:13;;;;;;;5.50;5.00;;;15.30;76.00;;;;;;4947259;28;20039;-61
2022/08/24 05:13:39;;;;;;;4.55;4.25;;;15.30;76.10;;;;;;4953477;28;20047;-63
2022/08/24 05:16:12;;;;;;;5.13;4.63;;;15.30;76.20;;;;;;4954554;28;20039;-63
2022/08/24 05:18:39;;;;;;;5.32;4.82;;;15.40;76.30;;;;;;4949924;28;20545;-63
2022/08/24 05:21:07;;;;;;;5.82;4.60;;;15.30;76.20;;;;;;4952136;28;20039;-62
2022/08/24 05:23:34;;;;;;;5.30;4.53;;;15.40;76.50;;;;;;4950957;28;20477;-62
2022/08/24 05:26:07;;;;;;;8.35;4.63;;;15.40;76.60;;;;;;4951329;28;20035;-62
2022/08/24 05:28:34;;;;;;;8.13;5.38;;;15.50;77.50;;;;;;4952320;28;20048;-62
2022/08/24 05:31:12;;;;;;;4.75;4.25;;;15.60;76.90;;;;;;4955602;28;20035;-60
2022/08/24 05:33:38;;;;;;;10.30;5.35;;;15.60;77.30;;;;;;4949773;28;20070;-62
2022/08/24 05:36:05;;;;;;;6.45;4.80;;;15.60;76.90;;;;;;4952281;28;20031;-62
2022/08/24 05:38:32;;;;;;;7.53;5.47;;;15.70;77.20;;;;;;4954621;28;20038;-62
2022/08/24 05:41:02;;;;;;;5.20;4.80;;;15.70;77.20;;;;;;4953588;28;20067;-62
2022/08/24 05:43:28;;;;;;;6.50;4.30;;;15.80;77.20;;;;;;4950206;28;20416;-62
2022/08/24 05:45:54;;;;;;;5.20;4.68;;;15.90;76.80;;;;;;4948811;28;20030;-62
2022/08/24 05:48:20;;;;;;;5.00;4.60;;;15.90;76.60;;;;;;4961309;28;20042;-62
2022/08/24 05:50:52;;;;;;;4.97;4.57;;;15.90;76.50;;;;;;4949270;28;20070;-61
2022/08/24 05:53:17;;;;;;;4.95;4.55;;;16.00;77.00;;;;;;4953697;28;20043;-61
2022/08/24 05:55:43;;;;;;;7.78;4.57;;;16.00;76.60;;;;;;4951521;28;20415;-62
2022/08/24 05:58:08;;;;;;;5.07;4.40;;;16.00;76.70;;;;;;4950159;28;20605;-62
2022/08/24 06:00:36;;;;;;;5.80;4.97;;;16.00;76.80;;;;;;4949327;28;20049;-62
2022/08/24 06:03:02;;;;;;;6.25;4.88;;;16.10;77.20;;;;;;4948909;28;20047;-62
2022/08/24 06:05:28;;;;;;;4.95;4.55;;;16.10;77.20;;;;;;4951040;28;20069;-62
2022/08/24 06:07:54;;;;;;;5.20;4.80;;;16.20;77.30;;;;;;4949143;28;20190;-62
2022/08/24 06:10:19;;;;;;;4.90;4.50;;;16.20;77.30;;;;;;4948409;28;20035;-62
2022/08/24 06:12:46;;;;;;;6.10;5.25;;;16.30;77.40;;;;;;4943827;28;20405;-62
2022/08/24 06:15:12;;;;;;;5.50;5.03;;;16.30;77.70;;;;;;4948652;28;22113;-60
2022/08/24 06:17:38;;;;;;;5.93;5.35;;;16.40;77.90;;;;;;4951168;28;20054;-61
2022/08/24 06:20:04;;;;;;;6.68;5.57;;;16.50;77.90;;;;;;4950665;28;20098;-62
2022/08/24 06:22:30;;;;;;;7.55;5.28;;;16.60;78.20;;;;;;4949046;28;20411;-60
2022/08/24 06:27:47;;;;;;;6.80;6.20;;;16.70;78.00;;;;;;4933246;28;20040;-61
2022/08/24 06:30:13;;;;;;;6.70;6.03;;;16.80;77.90;;;;;;4943951;28;20041;-61
2022/08/24 06:32:42;;;;;;;6.90;6.28;;;16.90;77.50;;;;;;4937849;28;20063;-62
2022/08/24 06:35:08;;;;;;;6.75;5.97;;;16.90;77.30;;;;;;4946555;28;20105;-61
2022/08/24 06:37:34;;;;;;;7.63;6.18;;;17.00;77.10;;;;;;4939722;28;20043;-61
2022/08/24 06:39:59;;;;;;;6.97;6.35;;;17.00;77.20;;;;;;4949762;28;20479;-62
2022/08/24 06:42:25;;;;;;;6.82;6.22;;;17.10;77.20;;;;;;4951494;28;20043;-60
2022/08/24 06:44:51;;;;;;;7.22;6.22;;;17.10;77.40;;;;;;4949031;28;20487;-62
2022/08/24 06:47:17;;;;;;;7.35;6.45;;;17.20;77.20;;;;;;4942870;28;20035;-61
2022/08/24 06:49:43;;;;;;;7.13;6.32;;;17.30;77.00;;;;;;4948470;28;20051;-61
2022/08/24 06:52:10;;;;;;;7.30;6.60;;;17.30;76.90;;;;;;4943236;28;20593;-62
2022/08/24 06:54:36;;;;;;;7.03;6.43;;;17.40;76.60;;;;;;4945780;28;20516;-62
2022/08/24 06:57:02;;;;;;;9.88;6.68;;;17.40;76.30;;;;;;4950555;28;20039;-62
2022/08/24 06:59:28;;;;;;;6.75;6.05;;;17.50;76.10;;;;;;4952837;28;20039;-61
2022/08/24 07:01:55;;;;;;;9.40;6.63;;;17.60;75.90;;;;;;4937890;28;20408;-61
2022/08/24 07:04:25;;;;;;;7.60;6.95;;;17.60;75.70;;;;;;4938793;28;20043;-60
2022/08/24 07:06:51;;;;;;;7.03;6.25;;;17.70;75.80;;;;;;4947710;28;20590;-59
2022/08/24 07:09:18;;;;;;;7.00;6.25;;;17.80;75.60;;;;;;4949819;28;20075;-61
2022/08/24 07:11:43;;;;;;;6.22;5.72;;;17.80;75.30;;;;;;4939593;28;20495;-61
2022/08/24 07:14:09;;;;;;;7.07;6.38;;;17.90;75.30;;;;;;4938290;28;20047;-59
2022/08/24 07:16:35;;;;;;;7.72;6.93;;;18.00;75.30;;;;;;4946883;28;20125;-62
2022/08/24 07:19:03;;;;;;;7.82;6.50;;;18.00;75.10;;;;;;4948036;28;20487;-62
2022/08/24 07:21:29;;;;;;;8.45;6.45;;;18.10;75.10;;;;;;4948391;28;20062;-62
2022/08/24 07:23:57;;;;;;;6.78;6.15;;;18.10;74.90;;;;;;4943440;28;20157;-60
2022/08/24 07:26:26;;;;;;;8.40;6.70;;;18.20;74.90;;;;;;4937390;28;20047;-60
2022/08/24 07:28:55;;;;;;;7.43;6.70;;;18.30;75.10;;;;;;4945897;28;20313;-62
2022/08/24 07:31:20;;;;;;;9.05;7.20;;;18.40;75.20;;;;;;4945169;28;20085;-61
2022/08/24 07:33:46;;;;;;;9.00;6.93;;;18.40;75.10;;;;;;4940779;28;20574;-60
2022/08/24 07:36:13;;;;;;;8.82;6.90;;;18.50;74.70;;;;;;4950848;28;20051;-62
2022/08/24 07:38:39;;;;;;;10.05;6.88;;;18.60;74.70;;;;;;4946166;28;20074;-61
2022/08/24 07:41:05;;;;;;;9.27;7.40;;;18.60;74.60;;;;;;4948075;28;20114;-62
2022/08/24 07:43:30;;;;;;;11.30;7.25;;;18.70;74.40;;;;;;4948409;28;20039;-62
2022/08/24 07:45:56;;;;;;;10.25;7.25;;;18.70;74.60;;;;;;4950411;28;20116;-62
2022/08/24 07:48:22;;;;;;;8.10;7.30;;;18.80;74.40;;;;;;4949153;28;20066;-62
2022/08/24 07:50:48;;;;;;;12.05;7.07;;;18.90;75.30;;;;;;4947013;28;20043;-62
2022/08/24 07:53:14;;;;;;;7.82;7.03;;;18.90;74.30;;;;;;4942692;28;20039;-62
2022/08/24 07:55:39;;;;;;;8.68;7.45;;;19.00;74.50;;;;;;4947779;28;20039;-59
2022/08/24 07:58:05;;;;;;;7.68;6.80;;;19.10;74.00;;;;;;4930470;28;20498;-62
2022/08/24 08:00:31;;;;;;;8.68;7.30;;;19.20;73.60;;;;;;4948875;28;20058;-62
2022/08/24 08:02:56;;;;;;;7.70;6.90;;;19.30;73.20;;;;;;4942025;28;20042;-62
2022/08/24 08:05:23;;;;;;;8.20;7.35;;;19.40;73.30;;;;;;4951606;28;20039;-63
2022/08/24 08:07:51;;;;;;;8.38;7.57;;;19.50;73.30;;;;;;4954604;28;20583;-61
2022/08/24 08:10:17;;;;;;;9.73;6.72;;;19.50;72.90;;;;;;4947669;28;20495;-62
2022/08/24 08:12:42;;;;;;;7.47;6.78;;;19.60;72.40;;;;;;4947616;28;20130;-62
2022/08/24 08:15:09;;;;;;;8.23;6.88;;;19.70;72.50;;;;;;4947641;28;20045;-61
2022/08/24 08:17:37;;;;;;;8.35;7.53;;;19.70;72.30;;;;;;4952942;28;20044;-62
2022/08/24 08:20:05;;;;;;;9.23;6.82;;;19.80;72.10;;;;;;4949869;28;20034;-61
2022/08/24 08:25:23;;;;;;;11.15;6.40;;;20.00;71.80;;;;;;4930716;28;20043;-63
2022/08/24 08:27:48;;;;;;;7.85;6.22;;;20.10;71.70;;;;;;4954569;28;20031;-62
2022/08/24 08:30:14;;;;;;;7.72;6.93;;;20.10;71.50;;;;;;4953164;28;20090;-63
2022/08/24 08:32:40;;;;;;;7.50;6.75;;;20.20;70.90;;;;;;4954411;28;20067;-63
2022/08/24 08:35:06;;;;;;;8.48;6.13;;;20.30;70.90;;;;;;4953880;28;20043;-60
2022/08/24 08:37:32;;;;;;;8.48;6.03;;;20.40;70.70;;;;;;4955424;28;20393;-62
2022/08/24 08:39:57;;;;;;;7.20;6.50;;;20.50;70.50;;;;;;4952474;28;20039;-62
2022/08/24 08:42:52;;;;;;;7.90;7.10;;;20.60;70.40;;;;;;4955422;28;20042;-63
2022/08/24 08:45:45;;;;;;;10.68;6.80;;;20.70;70.30;;;;;;4949037;28;20038;-62
2022/08/24 08:48:36;;;;;;;7.10;6.45;;;20.80;69.70;;;;;;4954926;28;20118;-63
2022/08/24 08:51:40;;;;;;;7.93;6.68;;;21.00;69.40;;;;;;4953001;28;20130;-62
2022/08/24 08:54:13;;;;;;;10.70;7.55;;;21.10;69.20;;;;;;4953029;28;20023;-62
2022/08/24 08:56:53;;;;;;;9.60;7.00;;;21.20;68.10;;;;;;4954386;28;20085;-62
2022/08/24 08:59:46;;;;;;;9.27;7.43;;;21.30;68.50;;;;;;4954445;28;20035;-63
2022/08/24 09:02:45;;;;;;;8.45;6.53;;;21.40;67.50;;;;;;4955662;28;20035;-62
2022/08/24 09:05:49;;;;;;;9.63;7.35;;;21.50;67.30;;;;;;4949399;28;20161;-61
2022/08/24 09:08:20;;;;;;;7.70;6.90;;;21.60;66.80;;;;;;4950770;28;20031;-62
2022/08/24 09:11:22;;;;;;;13.82;6.95;;;21.70;67.30;;;;;;4947291;28;20571;-63
2022/08/24 09:13:57;;;;;;;13.35;6.70;;;21.80;66.70;;;;;;4947822;28;20035;-62
2022/08/24 09:16:46;;;;;;;10.35;6.63;;;21.90;67.30;;;;;;4953575;28;20423;-62
2022/08/24 09:19:44;;;;;;;7.90;7.10;;;21.90;67.10;;;;;;4950055;28;20040;-62
2022/08/24 09:22:15;;;;;;;6.85;6.15;;;22.10;65.70;;;;;;4952797;28;20081;-62
2022/08/24 09:24:53;;;;;;;8.13;6.60;;;22.20;66.00;;;;;;4954236;28;20419;-63
2022/08/24 09:27:36;;;;;;;7.63;6.35;;;22.30;65.20;;;;;;4953126;28;20031;-63
2022/08/24 09:30:08;;;;;;;7.55;6.85;;;22.40;64.90;;;;;;4950071;28;20027;-63
2022/08/24 09:32:34;;;;;;;8.25;6.30;;;22.50;64.30;;;;;;4955474;28;20035;-63
2022/08/24 09:35:03;;;;;;;7.13;5.85;;;22.60;64.40;;;;;;4956053;28;20447;-63
2022/08/24 09:37:49;;;;;;;5.85;5.28;;;22.70;64.50;;;;;;4956051;28;20039;-63
2022/08/24 09:40:48;;;;;;;6.38;5.72;;;22.80;64.00;;;;;;4957174;28;20027;-61
2022/08/24 09:43:23;;;;;;;6.82;5.25;;;22.90;63.40;;;;;;4955892;28;20042;-62
2022/08/24 09:46:32;;;;;;;7.57;6.72;;;23.00;63.70;;;;;;4956654;28;20047;-61
2022/08/24 09:49:17;;;;;;;10.93;5.75;;;23.10;61.90;;;;;;4910883;29;20116;-63
2022/08/24 09:51:57;;;;;;;6.78;5.45;;;23.30;61.90;;;;;;4953240;28;20529;-62
2022/08/24 09:54:23;;;;;;;5.40;4.80;;;23.40;61.80;;;;;;4955849;28;20039;-62
2022/08/24 09:57:16;;;;;;;5.57;5.07;;;23.50;62.30;;;;;;4953369;28;20065;-62
2022/08/24 09:59:57;;;;;;;5.93;5.32;;;23.60;60.40;;;;;;4950789;28;20042;-62
2022/08/24 10:02:25;;;;;;;4.80;4.30;;;23.70;59.90;;;;;;4951589;28;20380;-62
2022/08/24 10:05:25;;;;;;;4.30;3.35;;;23.80;59.60;;;;;;4953593;28;20043;-61
2022/08/24 10:08:19;;;;;;;3.67;3.38;;;23.90;60.10;;;;;;4955552;28;20090;-61
2022/08/24 10:11:09;;;;;;;3.45;2.25;;;24.10;59.10;;;;;;4951202;28;20035;-62
2022/08/24 10:14:18;;;;;;;3.80;3.38;;;24.10;58.60;;;;;;4949223;28;20113;-62
2022/08/24 10:17:07;;;;;;;3.58;2.70;;;24.30;57.00;;;;;;4952857;28;20418;-61
2022/08/24 10:19:52;;;;;;;3.60;2.00;;;24.40;58.00;;;;;;4949429;28;20066;-62
2022/08/24 10:22:23;;;;;;;2.80;2.60;;;24.50;57.60;;;;;;4948889;28;20567;-61
2022/08/24 10:25:09;;;;;;;3.08;2.53;;;24.60;58.20;;;;;;4955606;28;20043;-62
2022/08/24 10:27:48;;;;;;;2.60;2.03;;;24.70;57.90;;;;;;4940967;28;20039;-62
2022/08/24 10:30:32;;;;;;;3.03;2.10;;;24.80;57.10;;;;;;4950302;28;20260;-63
2022/08/24 10:33:13;;;;;;;1.90;1.75;;;24.90;56.70;;;;;;4948828;28;20039;-62
2022/08/24 10:36:03;;;;;;;3.13;2.08;;;25.00;56.20;;;;;;4952719;28;20042;-62
2022/08/24 10:41:59;;;;;;;2.08;1.98;;;25.20;56.30;;;;;;4954651;28;20118;-62
2022/08/24 10:44:32;;;;;;;2.10;1.88;;;25.20;55.20;;;;;;4948105;28;20050;-62
2022/08/24 10:47:05;;;;;;;3.40;2.17;;;25.30;55.90;;;;;;4953928;28;20544;-62
2022/08/24 10:49:33;;;;;;;2.45;1.70;;;25.40;55.30;;;;;;4955915;28;20108;-63
2022/08/24 10:52:27;;;;;;;2.22;1.80;;;25.50;55.20;;;;;;4955919;28;20046;-63
2022/08/24 10:54:53;;;;;;;2.83;1.80;;;25.50;54.50;;;;;;4954902;28;20126;-63
2022/08/24 10:57:38;;;;;;;1.92;1.80;;;25.60;54.30;;;;;;4954565;28;20782;-62
2022/08/24 11:00:04;;;;;;;;;;;25.60;53.20;;;;;;4956160;28;20070;-63
2022/08/24 11:02:36;;;;;;;2.65;1.25;;;25.70;54.40;;;;;;4955084;28;19926;-63
2022/08/24 11:05:08;;;;;;;1.30;1.20;;;25.80;54.20;;;;;;4952001;28;20043;-62
2022/08/24 11:07:35;;;;;;;1.92;1.60;;;25.80;52.90;;;;;;4953408;28;20031;-62
2022/08/24 11:10:05;;;;;;;2.08;1.60;;;25.80;53.10;;;;;;4956104;28;20035;-63
2022/08/24 11:12:42;;;;;;;1.70;1.60;;;25.80;52.80;;;;;;4949168;28;20043;-64
2022/08/24 11:15:17;;;;;;;2.33;1.88;;;25.90;53.50;;;;;;4955137;28;20058;-63
2022/08/24 11:17:56;;;;;;;;;;;26.00;53.70;;;;;;4956258;28;20043;-62
2022/08/24 11:20:42;;;;;;;1.45;1.35;;;26.10;53.90;;;;;;4955866;28;20371;-63
2022/08/24 11:23:13;;;;;;;1.65;1.55;;;26.10;53.00;;;;;;4953231;28;20065;-62
2022/08/24 11:25:50;;;;;;;1.80;1.70;;;26.10;53.70;;;;;;4959547;28;20038;-63
2022/08/24 11:28:28;;;;;;;1.83;1.73;;;26.20;54.10;;;;;;4956068;28;20043;-63
2022/08/24 11:30:53;;;;;;;1.95;1.70;;;26.30;53.10;;;;;;4954565;28;20037;-64
2022/08/24 11:33:27;;;;;;;1.85;1.75;;;26.30;52.90;;;;;;4956486;28;20030;-63
2022/08/24 11:35:53;;;;;;;2.15;1.60;;;26.30;53.00;;;;;;4951475;28;20039;-63
2022/08/24 11:38:24;;;;;;;1.63;1.52;;;26.40;53.70;;;;;;4955626;28;20589;-63
2022/08/24 11:41:11;;;;;;;1.70;1.58;;;26.40;54.00;;;;;;4948300;28;20117;-64
2022/08/24 11:43:55;;;;;;;1.63;1.52;;;26.40;53.20;;;;;;4952706;28;20039;-63
2022/08/24 11:46:23;;;;;;;1.70;1.60;;;26.50;53.00;;;;;;4956236;28;20066;-63
2022/08/24 11:49:06;;;;;;;1.52;1.42;;;26.60;53.50;;;;;;4955457;28;20047;-63
2022/08/24 11:52:05;;;;;;;1.65;1.55;;;26.60;52.50;;;;;;4952887;28;20126;-63
2022/08/24 11:54:41;;;;;;;1.58;1.48;;;26.70;52.80;;;;;;4954111;28;20035;-63
2022/08/24 11:57:12;;;;;;;1.63;1.52;;;26.70;52.60;;;;;;4955913;28;20031;-63
2022/08/24 11:59:44;;;;;;;3.25;1.40;;;26.70;52.60;;;;;;4957130;28;20039;-63
2022/08/24 12:02:34;;;;;;;1.10;0.98;;;26.70;52.50;;;;;;4954792;28;20543;-63
2022/08/24 12:05:22;;;;;;;1.80;1.70;;;26.80;51.50;;;;;;4954156;28;20415;-61
2022/08/24 12:08:11;;;;;;;1.60;1.50;;;26.80;50.60;;;;;;4955704;28;20040;-63
2022/08/24 12:10:48;;;;;;;1.50;1.40;;;26.90;51.50;;;;;;4945814;28;20086;-63
2022/08/24 12:13:26;;;;;;;3.60;1.50;;;26.90;51.50;;;;;;4948663;28;20037;-62
2022/08/24 12:16:35;;;;;;;2.17;1.33;;;26.90;51.00;;;;;;4951924;28;20027;-61
2022/08/24 12:19:26;;;;;;;0.90;0.90;;;27.00;51.20;;;;;;4915558;28;20060;-62
2022/08/24 12:21:59;;;;;;;1.42;1.20;;;27.00;50.90;;;;;;4938520;28;20396;-63
2022/08/24 12:24:42;;;;;;;1.40;1.30;;;27.10;51.00;;;;;;4945817;28;20042;-63
2022/08/24 12:27:13;;;;;;;1.60;1.50;;;27.10;51.20;;;;;;4952879;28;20495;-62
2022/08/24 12:29:51;;;;;;;1.48;1.38;;;27.10;50.80;;;;;;4956089;28;20053;-62
2022/08/24 12:33:00;;;;;;;2.50;1.50;;;27.10;51.10;;;;;;4946640;28;20036;-62
2022/08/24 12:35:32;;;;;;;1.67;1.58;;;27.10;50.50;;;;;;4937247;28;20035;-62
2022/08/24 12:38:02;;;;;;;4.03;1.80;;;27.10;51.00;;;;;;4947923;28;20059;-62
2022/08/24 12:40:52;;;;;;;1.70;1.60;;;27.10;50.90;;;;;;4947962;28;20133;-63
2022/08/24 12:43:28;;;;;;;2.70;1.30;;;27.10;51.30;;;;;;4946246;28;20503;-64
2022/08/24 12:45:58;;;;;;;1.73;1.63;;;27.10;51.30;;;;;;4942201;28;20419;-63
2022/08/24 12:48:49;;;;;;;2.15;1.48;;;27.10;51.30;;;;;;4950621;28;20513;-63
2022/08/24 12:51:39;;;;;;;1.75;1.65;;;27.20;50.90;;;;;;4945756;28;20047;-63
2022/08/24 12:54:43;;;;;;;1.98;1.80;;;27.20;50.70;;;;;;4948727;28;20031;-62
2022/08/24 12:57:31;;;;;;;2.03;1.70;;;27.20;51.10;;;;;;4932041;28;20038;-63
2022/08/24 13:00:08;;;;;;;1.70;1.60;;;27.20;51.00;;;;;;4942934;28;20038;-63
2022/08/24 13:02:42;;;;;;;1.75;1.40;;;27.30;50.60;;;;;;4948566;28;20480;-63
2022/08/24 13:05:15;;;;;;;1.30;1.20;;;27.20;50.70;;;;;;4951006;28;20094;-64
2022/08/24 13:07:47;;;;;;;1.70;1.45;;;27.20;50.90;;;;;;4952676;28;20042;-63
2022/08/24 13:10:22;;;;;;;2.38;1.38;;;27.30;51.60;;;;;;4950569;28;20035;-64
2022/08/24 13:13:09;;;;;;;3.55;1.80;;;27.30;51.20;;;;;;4950759;28;20388;-63
2022/08/24 13:15:35;;;;;;;1.80;1.65;;;27.30;50.80;;;;;;4954973;28;20122;-63
2022/08/24 13:18:12;;;;;;;2.05;1.50;;;27.40;51.40;;;;;;4955217;28;20035;-63
2022/08/24 13:20:41;;;;;;;4.30;1.60;;;27.50;51.00;;;;;;4948717;28;20053;-64
2022/08/24 13:23:17;;;;;;;1.88;1.70;;;27.50;51.10;;;;;;4945874;28;20114;-62